createdAt,value
2023-03-05T00:00:40.569Z,5.65
2023-03-05T00:01:42.982Z,5.63
2023-03-05T00:02:44.708Z,5.67
2023-03-05T00:03:47.028Z,5.61
2023-03-05T00:04:48.769Z,5.68
2023-03-05T00:05:57.120Z,5.60
2023-03-05T00:06:58.877Z,5.69
2023-03-05T00:08:01.007Z,5.71
2023-03-05T00:09:03.575Z,5.70
2023-03-05T00:10:06.338Z,5.71
2023-03-05T00:11:10.597Z,5.68
2023-03-05T00:12:12.658Z,5.63
2023-03-05T00:13:14.384Z,5.62
2023-03-05T00:14:16.090Z,5.66
2023-03-05T00:15:17.982Z,5.65
2023-03-05T00:16:21.353Z,5.64
2023-03-05T00:17:23.394Z,5.57
2023-03-05T00:18:25.694Z,5.59
2023-03-05T00:19:27.464Z,5.47
2023-03-05T00:20:29.147Z,5.33
2023-03-05T00:21:37.758Z,5.46
2023-03-05T00:22:39.506Z,5.47
2023-03-05T00:23:41.243Z,5.47
2023-03-05T00:24:42.980Z,5.48
2023-03-05T00:25:46.126Z,5.50
2023-03-05T00:26:48.156Z,5.42
2023-03-05T00:27:49.918Z,5.49
2023-03-05T00:28:52.635Z,5.45
2023-03-05T00:29:54.385Z,5.51
2023-03-05T00:31:01.034Z,5.39
2023-03-05T00:32:03.005Z,5.48
2023-03-05T00:33:04.798Z,5.42
2023-03-05T00:34:09.699Z,5.36
2023-03-05T00:35:11.512Z,5.17
2023-03-05T00:36:13.263Z,5.14
2023-03-05T00:37:15.001Z,5.08
2023-03-05T00:38:16.707Z,5.10
2023-03-05T00:39:20.661Z,5.12
2023-03-05T00:40:22.467Z,5.18
2023-03-05T00:41:24.906Z,5.17
2023-03-05T00:42:26.621Z,5.22
2023-03-05T00:43:29.055Z,5.24
2023-03-05T00:44:30.820Z,5.25
2023-03-05T00:45:32.721Z,5.18
2023-03-05T00:46:34.873Z,5.30
2023-03-05T00:47:36.729Z,5.30
2023-03-05T00:48:38.486Z,5.35
2023-03-05T00:49:40.187Z,5.35
2023-03-05T00:50:41.887Z,5.27
2023-03-05T00:51:43.674Z,5.31
2023-03-05T00:52:45.454Z,5.29
2023-03-05T00:53:47.291Z,5.24
2023-03-05T00:54:49.017Z,5.31
2023-03-05T00:55:50.795Z,5.29
2023-03-05T00:56:52.539Z,5.23
2023-03-05T00:57:54.307Z,5.24
2023-03-05T00:58:56.832Z,5.24
2023-03-05T00:59:58.536Z,5.23
2023-03-05T01:01:01.613Z,5.21
2023-03-05T01:02:03.482Z,5.16
2023-03-05T01:03:05.241Z,5.12
2023-03-05T01:04:07.036Z,5.00
2023-03-05T01:05:12.722Z,5.02
2023-03-05T01:06:17.118Z,5.09
2023-03-05T01:07:19.043Z,5.09
2023-03-05T01:08:20.843Z,5.14
2023-03-05T01:09:25.255Z,5.17
2023-03-05T01:10:27.146Z,5.21
2023-03-05T01:11:28.938Z,5.22
2023-03-05T01:12:30.781Z,5.15
2023-03-05T01:13:33.167Z,5.21
2023-03-05T01:14:36.003Z,5.15
2023-03-05T01:15:37.814Z,5.10
2023-03-05T01:16:39.539Z,5.10
2023-03-05T01:17:41.664Z,5.16
2023-03-05T01:18:43.543Z,5.18
2023-03-05T01:19:45.305Z,5.18
2023-03-05T01:20:47.733Z,5.16
2023-03-05T01:21:49.440Z,5.05
2023-03-05T01:22:51.211Z,4.97
2023-03-05T01:23:52.958Z,4.93
2023-03-05T01:24:54.659Z,4.96
2023-03-05T01:25:57.895Z,5.00
2023-03-05T01:26:59.596Z,5.02
2023-03-05T01:28:01.733Z,5.08
2023-03-05T01:29:04.370Z,5.02
2023-03-05T01:30:07.977Z,5.13
2023-03-05T01:31:10.469Z,5.11
2023-03-05T01:32:12.251Z,5.11
2023-03-05T01:33:14.051Z,5.21
2023-03-05T01:34:16.246Z,5.25
2023-03-05T01:35:20.540Z,5.19
2023-03-05T01:36:25.157Z,5.26
2023-03-05T01:37:27.062Z,5.24
2023-03-05T01:38:28.777Z,5.00
2023-03-05T01:39:30.538Z,5.29
2023-03-05T01:40:32.694Z,5.32
2023-03-05T01:41:35.032Z,5.37
2023-03-05T01:42:36.818Z,5.43
2023-03-05T01:43:39.100Z,5.45
2023-03-05T01:45:20.296Z,5.43
2023-03-05T01:46:25.029Z,5.49
2023-03-05T01:47:26.732Z,5.49
2023-03-05T01:48:28.521Z,5.38
2023-03-05T01:49:40.112Z,5.37
2023-03-05T01:50:41.926Z,5.46
2023-03-05T01:51:56.497Z,5.44
2023-03-05T01:53:02.791Z,5.51
2023-03-05T01:54:07.296Z,5.52
2023-03-05T01:55:15.112Z,5.56
2023-03-05T01:56:17.102Z,5.53
2023-03-05T01:57:23.379Z,5.38
2023-03-05T01:58:26.222Z,5.50
2023-03-05T01:59:28.540Z,5.45
2023-03-05T02:00:35.581Z,5.49
2023-03-05T02:01:41.061Z,5.44
2023-03-05T02:02:45.223Z,5.46
2023-03-05T02:03:48.456Z,5.43
2023-03-05T02:04:59.211Z,5.44
2023-03-05T02:06:00.908Z,5.46
2023-03-05T02:07:03.331Z,5.37
2023-03-05T02:08:11.301Z,5.49
2023-03-05T02:09:13.483Z,5.47
2023-03-05T02:10:20.990Z,5.50
2023-03-05T02:11:22.810Z,5.43
2023-03-05T02:12:24.584Z,5.50
2023-03-05T02:13:31.740Z,5.52
2023-03-05T02:14:33.797Z,5.47
2023-03-05T02:15:36.947Z,5.39
2023-03-05T02:16:39.270Z,5.43
2023-03-05T02:17:41.101Z,5.39
2023-03-05T02:18:42.811Z,5.35
2023-03-05T02:19:53.058Z,5.34
2023-03-05T02:20:57.821Z,5.36
2023-03-05T02:21:59.542Z,5.38
2023-03-05T02:23:01.286Z,5.35
2023-03-05T02:24:03.165Z,5.39
2023-03-05T02:25:24.172Z,5.36
2023-03-05T02:26:25.890Z,5.34
2023-03-05T02:27:35.219Z,5.35
2023-03-05T02:28:40.970Z,5.31
2023-03-05T02:29:46.584Z,5.32
2023-03-05T02:30:48.875Z,5.32
2023-03-05T02:31:50.770Z,5.24
2023-03-05T02:32:52.648Z,5.34
2023-03-05T02:33:56.189Z,5.37
2023-03-05T02:34:57.930Z,5.32
2023-03-05T02:35:59.831Z,5.25
2023-03-05T02:37:04.708Z,5.16
2023-03-05T02:38:06.520Z,5.25
2023-03-05T02:39:09.816Z,5.24
2023-03-05T02:40:13.355Z,5.25
2023-03-05T02:41:15.840Z,5.24
2023-03-05T02:42:17.690Z,5.25
2023-03-05T02:43:19.545Z,5.27
2023-03-05T02:44:21.313Z,5.25
2023-03-05T02:45:23.043Z,5.23
2023-03-05T02:46:24.779Z,5.13
2023-03-05T02:47:27.774Z,5.16
2023-03-05T02:48:29.495Z,5.16
2023-03-05T02:49:31.199Z,5.04
2023-03-05T02:50:34.129Z,5.12
2023-03-05T02:51:35.913Z,5.13
2023-03-05T02:52:38.184Z,5.09
2023-03-05T02:53:39.883Z,5.08
2023-03-05T02:54:41.560Z,5.07
2023-03-05T02:55:47.177Z,5.03
2023-03-05T02:56:49.191Z,5.07
2023-03-05T02:57:50.903Z,5.05
2023-03-05T02:58:52.607Z,4.98
2023-03-05T02:59:54.458Z,4.89
2023-03-05T03:00:56.254Z,4.93
2023-03-05T03:01:58.005Z,4.92
2023-03-05T03:02:59.818Z,4.73
2023-03-05T03:04:01.648Z,4.66
2023-03-05T03:05:03.623Z,4.58
2023-03-05T03:06:05.775Z,4.52
2023-03-05T03:07:07.475Z,4.43
2023-03-05T03:08:10.470Z,4.41
2023-03-05T03:09:12.183Z,4.37
2023-03-05T03:10:13.871Z,4.37
2023-03-05T03:11:15.682Z,4.41
2023-03-05T03:12:17.424Z,4.38
2023-03-05T03:13:19.161Z,4.16
2023-03-05T03:14:21.758Z,4.38
2023-03-05T03:15:23.561Z,4.41
2023-03-05T03:16:25.314Z,4.42
2023-03-05T03:17:27.022Z,4.48
2023-03-05T03:18:28.776Z,4.46
2023-03-05T03:19:30.481Z,4.55
2023-03-05T03:20:32.841Z,4.55
2023-03-05T03:21:34.679Z,4.57
2023-03-05T03:22:36.624Z,4.59
2023-03-05T03:23:38.365Z,4.59
2023-03-05T03:24:42.219Z,4.73
2023-03-05T03:25:44.011Z,4.77
2023-03-05T03:26:45.740Z,4.73
2023-03-05T03:27:47.711Z,4.84
2023-03-05T03:28:49.550Z,4.82
2023-03-05T03:29:51.295Z,4.85
2023-03-05T03:30:53.075Z,4.89
2023-03-05T03:31:54.810Z,4.95
2023-03-05T03:32:56.558Z,4.96
2023-03-05T03:33:58.390Z,5.00
2023-03-05T03:35:00.583Z,4.99
2023-03-05T03:36:02.626Z,4.98
2023-03-05T03:37:04.423Z,4.95
2023-03-05T03:38:06.515Z,5.01
2023-03-05T03:39:10.061Z,4.99
2023-03-05T03:40:12.163Z,4.96
2023-03-05T03:41:13.901Z,4.88
2023-03-05T03:42:20.807Z,4.96
2023-03-05T03:43:22.670Z,4.98
2023-03-05T03:44:24.588Z,5.00
2023-03-05T03:45:26.319Z,5.01
2023-03-05T03:46:28.145Z,5.01
2023-03-05T03:47:31.182Z,4.99
2023-03-05T03:48:33.233Z,4.99
2023-03-05T03:49:35.052Z,4.96
2023-03-05T03:50:44.089Z,4.97
2023-03-05T03:51:47.195Z,4.87
2023-03-05T03:52:48.890Z,4.80
2023-03-05T03:53:50.589Z,4.83
2023-03-05T03:54:53.212Z,4.80
2023-03-05T03:55:58.830Z,4.68
2023-03-05T03:57:00.897Z,4.72
2023-03-05T03:58:03.507Z,4.77
2023-03-05T03:59:05.445Z,4.77
2023-03-05T04:00:07.853Z,4.62
2023-03-05T04:01:09.651Z,4.50
2023-03-05T04:02:11.569Z,4.43
2023-03-05T04:03:13.304Z,4.39
2023-03-05T04:04:15.257Z,4.46
2023-03-05T04:05:17.076Z,4.49
2023-03-05T04:06:18.820Z,4.48
2023-03-05T04:07:20.561Z,4.44
2023-03-05T04:08:22.277Z,4.43
2023-03-05T04:09:24.003Z,4.48
2023-03-05T04:10:26.909Z,4.41
2023-03-05T04:11:28.646Z,4.49
2023-03-05T04:12:30.365Z,4.53
2023-03-05T04:13:32.386Z,4.51
2023-03-05T04:14:34.502Z,4.51
2023-03-05T04:15:36.418Z,4.54
2023-03-05T04:16:38.188Z,4.54
2023-03-05T04:17:39.901Z,4.59
2023-03-05T04:18:42.275Z,4.63
2023-03-05T04:19:43.997Z,4.60
2023-03-05T04:20:45.777Z,4.64
2023-03-05T04:21:47.636Z,4.61
2023-03-05T04:22:49.393Z,4.67
2023-03-05T04:23:51.148Z,4.66
2023-03-05T04:24:52.871Z,4.67
2023-03-05T04:25:54.689Z,4.65
2023-03-05T04:26:56.423Z,4.68
2023-03-05T04:27:58.120Z,4.71
2023-03-05T04:28:59.807Z,4.71
2023-03-05T04:30:01.865Z,4.68
2023-03-05T04:31:04.162Z,4.61
2023-03-05T04:32:06.052Z,4.67
2023-03-05T04:33:07.783Z,4.64
2023-03-05T04:34:09.492Z,4.70
2023-03-05T04:35:11.561Z,4.71
2023-03-05T04:36:13.299Z,4.72
2023-03-05T04:37:14.972Z,4.69
2023-03-05T04:38:16.698Z,4.71
2023-03-05T04:39:20.990Z,4.72
2023-03-05T04:40:22.776Z,4.72
2023-03-05T04:41:24.520Z,4.76
2023-03-05T04:42:26.312Z,4.75
2023-03-05T04:43:28.087Z,4.76
2023-03-05T04:44:29.843Z,4.71
2023-03-05T04:45:31.861Z,4.76
2023-03-05T04:46:33.793Z,4.68
2023-03-05T04:47:36.062Z,4.71
2023-03-05T04:48:37.879Z,4.66
2023-03-05T04:49:39.581Z,4.61
2023-03-05T04:50:41.311Z,4.67
2023-03-05T04:51:43.040Z,4.66
2023-03-05T04:52:45.594Z,4.60
2023-03-05T04:53:47.299Z,4.56
2023-03-05T04:54:49.078Z,4.49
2023-03-05T04:55:56.829Z,4.54
2023-03-05T04:56:58.635Z,4.56
2023-03-05T04:58:00.572Z,4.55
2023-03-05T04:59:02.259Z,4.49
2023-03-05T05:00:11.965Z,4.55
2023-03-05T05:01:13.851Z,4.65
2023-03-05T05:02:15.593Z,4.67
2023-03-05T05:03:17.392Z,4.68
2023-03-05T05:04:19.264Z,4.68
2023-03-05T05:05:24.024Z,4.71
2023-03-05T05:06:25.720Z,4.69
2023-03-05T05:07:27.472Z,4.69
2023-03-05T05:08:29.740Z,4.74
2023-03-05T05:09:31.445Z,4.67
2023-03-05T05:10:33.356Z,4.71
2023-03-05T05:11:35.076Z,4.74
2023-03-05T05:12:37.193Z,4.81
2023-03-05T05:13:38.895Z,4.79
2023-03-05T05:14:40.681Z,4.78
2023-03-05T05:15:42.428Z,4.87
2023-03-05T05:16:44.254Z,4.88
2023-03-05T05:17:46.340Z,4.88
2023-03-05T05:18:48.088Z,4.88
2023-03-05T05:19:50.040Z,4.91
2023-03-05T05:20:52.191Z,4.88
2023-03-05T05:21:53.873Z,4.95
2023-03-05T05:22:55.593Z,4.97
2023-03-05T05:23:57.381Z,4.96
2023-03-05T05:24:59.113Z,4.89
2023-03-05T05:26:02.775Z,4.91
2023-03-05T05:27:04.487Z,4.85
2023-03-05T05:28:06.236Z,4.88
2023-03-05T05:29:08.014Z,4.92
2023-03-05T05:30:10.705Z,4.82
2023-03-05T05:31:14.972Z,4.81
2023-03-05T05:32:17.980Z,4.87
2023-03-05T05:33:20.454Z,4.85
2023-03-05T05:34:24.555Z,4.83
2023-03-05T05:35:26.587Z,4.81
2023-03-05T05:36:28.490Z,4.84
2023-03-05T05:37:30.825Z,4.91
2023-03-05T05:38:33.318Z,4.92
2023-03-05T05:39:35.887Z,5.07
2023-03-05T05:40:37.760Z,5.13
2023-03-05T05:41:39.455Z,5.21
2023-03-05T05:42:41.201Z,5.19
2023-03-05T05:43:43.477Z,5.25
2023-03-05T05:44:45.551Z,5.24
2023-03-05T05:45:47.527Z,5.18
2023-03-05T05:46:49.273Z,5.15
2023-03-05T05:47:50.998Z,5.17
2023-03-05T05:48:52.767Z,5.27
2023-03-05T05:49:54.530Z,5.33
2023-03-05T05:50:56.485Z,5.39
2023-03-05T05:51:59.274Z,5.33
2023-03-05T05:53:00.988Z,5.46
2023-03-05T05:54:02.812Z,5.55
2023-03-05T05:55:05.009Z,5.65
2023-03-05T05:56:09.354Z,5.73
2023-03-05T05:57:11.074Z,5.77
2023-03-05T05:58:12.844Z,5.80
2023-03-05T05:59:14.573Z,5.88
2023-03-05T06:00:16.761Z,5.93
2023-03-05T06:01:23.106Z,5.98
2023-03-05T06:02:24.851Z,6.06
2023-03-05T06:03:26.624Z,6.15
2023-03-05T06:04:28.470Z,6.19
2023-03-05T06:05:30.283Z,6.27
2023-03-05T06:06:33.307Z,6.27
2023-03-05T06:07:36.213Z,6.45
2023-03-05T06:08:38.288Z,6.51
2023-03-05T06:09:40.070Z,6.59
2023-03-05T06:10:41.784Z,6.57
2023-03-05T06:11:43.516Z,6.75
2023-03-05T06:12:45.199Z,6.78
2023-03-05T06:13:47.832Z,6.86
2023-03-05T06:14:49.619Z,6.91
2023-03-05T06:16:03.175Z,6.96
2023-03-05T06:17:04.975Z,7.09
2023-03-05T06:18:06.728Z,7.14
2023-03-05T06:19:12.570Z,7.14
2023-03-05T06:20:14.678Z,7.24
2023-03-05T06:21:18.056Z,7.32
2023-03-05T06:22:19.770Z,7.39
2023-03-05T06:23:21.712Z,7.52
2023-03-05T06:24:23.484Z,7.60
2023-03-05T06:25:25.268Z,7.63
2023-03-05T06:26:27.068Z,7.75
2023-03-05T06:27:28.760Z,7.85
2023-03-05T06:28:31.339Z,7.90
2023-03-05T06:29:33.171Z,7.93
2023-03-05T06:30:34.967Z,7.99
2023-03-05T06:31:37.404Z,8.03
2023-03-05T06:32:39.409Z,8.12
2023-03-05T06:33:41.855Z,8.20
2023-03-05T06:34:43.562Z,8.17
2023-03-05T06:35:45.306Z,8.22
2023-03-05T06:36:47.107Z,8.22
2023-03-05T06:37:49.316Z,8.35
2023-03-05T06:38:53.323Z,8.41
2023-03-05T06:39:55.209Z,8.46
2023-03-05T06:41:01.881Z,8.47
2023-03-05T06:42:03.654Z,8.52
2023-03-05T06:43:05.346Z,8.58
2023-03-05T06:44:07.039Z,8.65
2023-03-05T06:45:09.609Z,8.70
2023-03-05T06:46:26.145Z,8.76
2023-03-05T06:47:27.988Z,8.81
2023-03-05T06:48:29.700Z,8.89
2023-03-05T06:49:31.477Z,8.91
2023-03-05T06:50:36.888Z,8.99
2023-03-05T06:51:40.441Z,9.03
2023-03-05T06:52:42.181Z,8.99
2023-03-05T06:53:45.502Z,9.06
2023-03-05T06:54:48.040Z,9.09
2023-03-05T06:55:49.744Z,9.16
2023-03-05T06:56:51.465Z,9.16
2023-03-05T06:57:53.206Z,9.13
2023-03-05T06:58:55.027Z,9.16
2023-03-05T06:59:56.793Z,9.16
2023-03-05T07:00:58.595Z,9.22
2023-03-05T07:02:00.365Z,9.20
2023-03-05T07:03:02.281Z,9.24
2023-03-05T07:04:04.618Z,9.21
2023-03-05T07:05:07.405Z,9.22
2023-03-05T07:06:14.615Z,9.32
2023-03-05T07:07:16.380Z,9.41
2023-03-05T07:08:18.168Z,9.39
2023-03-05T07:09:20.053Z,9.41
2023-03-05T07:10:21.744Z,9.49
2023-03-05T07:11:23.989Z,9.58
2023-03-05T07:12:25.800Z,9.68
2023-03-05T07:13:28.239Z,9.72
2023-03-05T07:14:30.021Z,9.75
2023-03-05T07:15:31.810Z,9.89
2023-03-05T07:16:35.274Z,9.92
2023-03-05T07:17:36.970Z,9.90
2023-03-05T07:18:38.739Z,9.91
2023-03-05T07:19:40.430Z,9.91
2023-03-05T07:20:42.133Z,10.25
2023-03-05T07:21:44.002Z,10.55
2023-03-05T07:22:45.728Z,10.76
2023-03-05T07:23:47.609Z,11.10
2023-03-05T07:24:49.605Z,11.41
2023-03-05T07:25:51.283Z,11.55
2023-03-05T07:26:52.974Z,11.70
2023-03-05T07:27:54.671Z,11.78
2023-03-05T07:28:56.814Z,11.87
2023-03-05T07:29:58.558Z,11.71
2023-03-05T07:31:06.636Z,11.76
2023-03-05T07:32:08.871Z,11.89
2023-03-05T07:33:10.742Z,12.03
2023-03-05T07:34:12.494Z,12.06
2023-03-05T07:35:14.583Z,12.18
2023-03-05T07:36:17.015Z,12.16
2023-03-05T07:37:18.728Z,12.20
2023-03-05T07:38:20.685Z,12.27
2023-03-05T07:39:22.492Z,12.25
2023-03-05T07:40:24.168Z,12.35
2023-03-05T07:41:25.920Z,12.50
2023-03-05T07:42:27.694Z,12.59
2023-03-05T07:43:29.631Z,12.77
2023-03-05T07:44:31.358Z,12.92
2023-03-05T07:45:33.120Z,13.04
2023-03-05T07:46:34.989Z,13.07
2023-03-05T07:47:37.346Z,13.06
2023-03-05T07:48:39.160Z,13.07
2023-03-05T07:49:41.821Z,13.09
2023-03-05T07:50:44.304Z,13.14
2023-03-05T07:51:46.005Z,13.09
2023-03-05T07:52:47.741Z,13.08
2023-03-05T07:53:51.433Z,12.86
2023-03-05T07:54:53.149Z,12.86
2023-03-05T07:55:54.899Z,12.87
2023-03-05T07:56:56.654Z,12.82
2023-03-05T07:57:58.356Z,12.78
2023-03-05T07:59:01.437Z,12.62
2023-03-05T08:00:03.180Z,12.48
2023-03-05T08:01:12.099Z,12.28
2023-03-05T08:02:15.373Z,12.21
2023-03-05T08:03:17.447Z,12.24
2023-03-05T08:04:19.170Z,12.40
2023-03-05T08:05:20.979Z,12.52
2023-03-05T08:06:22.709Z,12.61
2023-03-05T08:07:24.423Z,12.68
2023-03-05T08:08:26.139Z,12.65
2023-03-05T08:09:28.284Z,12.66
2023-03-05T08:10:30.022Z,12.79
2023-03-05T08:11:31.873Z,12.77
2023-03-05T08:12:33.578Z,12.96
2023-03-05T08:13:35.980Z,13.02
2023-03-05T08:14:38.206Z,13.05
2023-03-05T08:15:39.945Z,13.12
2023-03-05T08:16:41.826Z,13.31
2023-03-05T08:17:43.605Z,13.40
2023-03-05T08:18:46.204Z,13.48
2023-03-05T08:19:47.957Z,13.68
2023-03-05T08:20:49.642Z,13.88
2023-03-05T08:21:51.404Z,14.19
2023-03-05T08:22:53.087Z,14.46
2023-03-05T08:23:56.124Z,14.63
2023-03-05T08:24:57.836Z,14.75
2023-03-05T08:25:59.538Z,14.68
2023-03-05T08:27:01.264Z,14.52
2023-03-05T08:28:02.968Z,14.54
2023-03-05T08:29:05.754Z,14.59
2023-03-05T08:30:09.066Z,14.55
2023-03-05T08:31:12.275Z,14.53
2023-03-05T08:32:14.078Z,14.48
2023-03-05T08:33:17.745Z,14.22
2023-03-05T08:34:20.967Z,14.20
2023-03-05T08:35:23.489Z,14.09
2023-03-05T08:36:25.771Z,14.14
2023-03-05T08:37:27.483Z,14.21
2023-03-05T08:38:29.253Z,14.08
2023-03-05T08:39:31.046Z,14.11
2023-03-05T08:40:33.096Z,14.15
2023-03-05T08:41:34.925Z,14.16
2023-03-05T08:42:36.669Z,14.20
2023-03-05T08:43:38.874Z,14.18
2023-03-05T08:44:40.660Z,14.17
2023-03-05T08:45:42.458Z,14.16
2023-03-05T08:46:44.262Z,14.07
2023-03-05T08:47:46.093Z,14.07
2023-03-05T08:48:47.816Z,14.06
2023-03-05T08:49:49.605Z,14.08
2023-03-05T08:50:51.387Z,14.12
2023-03-05T08:51:53.103Z,14.17
2023-03-05T08:52:57.075Z,14.18
2023-03-05T08:53:59.912Z,14.22
2023-03-05T08:55:01.648Z,14.29
2023-03-05T08:56:03.882Z,14.34
2023-03-05T08:57:05.672Z,14.39
2023-03-05T08:58:07.581Z,14.34
2023-03-05T08:59:11.471Z,14.21
2023-03-05T09:00:14.844Z,14.16
2023-03-05T09:01:16.673Z,13.94
2023-03-05T09:02:18.405Z,14.09
2023-03-05T09:03:20.214Z,14.06
2023-03-05T09:04:21.917Z,14.10
2023-03-05T09:05:23.649Z,14.00
2023-03-05T09:06:26.252Z,14.02
2023-03-05T09:07:27.947Z,13.98
2023-03-05T09:08:30.450Z,13.88
2023-03-05T09:09:33.161Z,13.86
2023-03-05T09:10:34.866Z,13.77
2023-03-05T09:11:37.370Z,13.77
2023-03-05T09:12:39.326Z,13.76
2023-03-05T09:13:41.363Z,13.67
2023-03-05T09:14:43.140Z,13.51
2023-03-05T09:15:44.951Z,13.49
2023-03-05T09:16:46.735Z,13.43
2023-03-05T09:17:48.488Z,13.47
2023-03-05T09:18:50.200Z,13.51
2023-03-05T09:19:52.086Z,13.56
2023-03-05T09:20:54.239Z,13.63
2023-03-05T09:21:57.093Z,13.37
2023-03-05T09:22:58.920Z,13.54
2023-03-05T09:24:00.807Z,13.56
2023-03-05T09:25:02.536Z,13.61
2023-03-05T09:26:12.326Z,13.55
2023-03-05T09:27:14.054Z,13.51
2023-03-05T09:28:16.298Z,13.32
2023-03-05T09:29:18.081Z,13.23
2023-03-05T09:30:20.148Z,13.15
2023-03-05T09:31:22.032Z,13.12
2023-03-05T09:32:23.801Z,13.21
2023-03-05T09:33:25.657Z,13.24
2023-03-05T09:34:27.447Z,13.35
2023-03-05T09:35:29.313Z,13.39
2023-03-05T09:36:32.530Z,13.47
2023-03-05T09:37:34.588Z,13.43
2023-03-05T09:38:37.870Z,13.44
2023-03-05T09:39:39.617Z,13.39
2023-03-05T09:40:51.511Z,13.46
2023-03-05T09:41:56.196Z,13.35
2023-03-05T09:43:42.519Z,13.34
2023-03-05T09:45:09.287Z,13.25
2023-03-05T09:46:25.126Z,13.35
2023-03-05T09:48:06.545Z,13.29
2023-03-05T09:49:39.356Z,13.29
2023-03-05T09:50:43.666Z,13.30
2023-03-05T09:51:46.947Z,13.40
2023-03-05T09:52:58.267Z,13.46
2023-03-05T09:54:24.993Z,13.57
2023-03-05T09:55:37.002Z,13.61
2023-03-05T09:56:43.084Z,13.51
2023-03-05T09:57:52.473Z,13.52
2023-03-05T09:58:59.864Z,13.49
2023-03-05T10:00:09.036Z,13.52
2023-03-05T10:01:16.136Z,13.57
2023-03-05T10:02:26.153Z,13.57
2023-03-05T10:03:36.976Z,13.64
2023-03-05T10:04:48.092Z,13.74
2023-03-05T10:06:00.883Z,13.77
2023-03-05T10:07:17.004Z,13.78
2023-03-05T10:08:24.785Z,13.79
2023-03-05T10:09:26.463Z,13.69
2023-03-05T10:10:44.215Z,13.59
2023-03-05T10:12:03.648Z,13.63
2023-03-05T10:13:25.795Z,13.62
2023-03-05T10:14:40.575Z,13.56
2023-03-05T10:16:16.761Z,13.72
2023-03-05T10:17:18.494Z,13.87
2023-03-05T10:18:42.466Z,13.93
2023-03-05T10:19:53.290Z,13.95
2023-03-05T10:21:12.410Z,13.88
2023-03-05T10:22:19.992Z,13.88
2023-03-05T10:23:41.562Z,13.92
2023-03-05T10:24:56.511Z,13.93
2023-03-05T10:26:23.268Z,13.94
2023-03-05T10:27:49.495Z,13.96
2023-03-05T10:29:48.319Z,14.06
2023-03-05T10:31:07.363Z,14.10
2023-03-05T10:32:09.576Z,14.11
2023-03-05T10:33:29.421Z,14.16
2023-03-05T10:34:56.275Z,14.12
2023-03-05T10:36:24.496Z,14.17
2023-03-05T10:37:59.390Z,14.17
2023-03-05T10:39:01.110Z,14.19
2023-03-05T10:40:16.491Z,14.23
2023-03-05T10:41:27.183Z,14.30
2023-03-05T10:42:37.943Z,14.32
2023-03-05T10:43:45.676Z,14.29
2023-03-05T10:44:57.283Z,14.30
2023-03-05T10:46:02.917Z,14.40
2023-03-05T10:47:16.263Z,14.39
2023-03-05T10:48:45.830Z,14.30
2023-03-05T10:49:53.966Z,14.35
2023-03-05T10:51:10.426Z,14.47
2023-03-05T10:52:18.556Z,14.46
2023-03-05T10:53:43.762Z,14.34
2023-03-05T10:54:45.504Z,14.29
2023-03-05T10:55:47.356Z,14.44
2023-03-05T10:56:49.096Z,14.50
2023-03-05T10:57:50.879Z,14.43
2023-03-05T10:58:53.670Z,14.42
2023-03-05T11:00:17.158Z,14.37
2023-03-05T11:01:29.494Z,14.31
2023-03-05T11:02:31.616Z,14.37
2023-03-05T11:03:50.198Z,14.25
2023-03-05T11:04:52.957Z,14.27
2023-03-05T11:06:03.896Z,14.21
2023-03-05T11:07:32.804Z,14.10
2023-03-05T11:08:36.100Z,14.03
2023-03-05T11:09:37.827Z,14.10
2023-03-05T11:10:39.543Z,14.03
2023-03-05T11:11:41.421Z,14.02
2023-03-05T11:12:43.926Z,14.20
2023-03-05T11:13:53.835Z,14.36
2023-03-05T11:15:29.367Z,14.33
2023-03-05T11:16:34.594Z,14.40
2023-03-05T11:17:49.073Z,14.42
2023-03-05T11:18:50.939Z,14.48
2023-03-05T11:19:52.725Z,14.70
2023-03-05T11:21:08.370Z,14.88
2023-03-05T11:22:17.320Z,14.93
2023-03-05T11:23:24.030Z,15.02
2023-03-05T11:24:25.749Z,15.09
2023-03-05T11:25:28.187Z,15.07
2023-03-05T11:26:30.854Z,15.08
2023-03-05T11:27:39.441Z,15.23
2023-03-05T11:28:57.874Z,15.26
2023-03-05T11:29:59.816Z,15.25
2023-03-05T11:31:21.811Z,15.30
2023-03-05T11:32:26.792Z,15.41
2023-03-05T11:33:29.403Z,15.45
2023-03-05T11:34:35.488Z,15.46
2023-03-05T11:35:40.225Z,15.36
2023-03-05T11:36:44.488Z,15.42
2023-03-05T11:38:00.241Z,15.12
2023-03-05T11:39:08.106Z,15.18
2023-03-05T11:40:25.286Z,14.99
2023-03-05T11:41:52.595Z,15.04
2023-03-05T11:43:00.678Z,15.05
2023-03-05T11:44:05.893Z,14.99
2023-03-05T11:45:17.638Z,14.84
2023-03-05T11:46:21.976Z,14.96
2023-03-05T11:47:28.679Z,14.98
2023-03-05T11:48:37.113Z,14.94
2023-03-05T11:49:43.628Z,15.00
2023-03-05T11:50:49.520Z,14.96
2023-03-05T11:51:51.207Z,15.02
2023-03-05T11:52:57.359Z,15.08
2023-03-05T11:54:07.986Z,15.12
2023-03-05T11:55:20.753Z,15.14
2023-03-05T11:56:33.527Z,15.18
2023-03-05T11:58:07.887Z,15.24
2023-03-05T11:59:32.065Z,15.25
2023-03-05T12:00:37.141Z,15.32
2023-03-05T12:01:45.311Z,15.35
2023-03-05T12:02:52.433Z,15.44
2023-03-05T12:03:55.810Z,15.39
2023-03-05T12:04:59.561Z,15.34
2023-03-05T12:06:22.997Z,15.39
2023-03-05T12:07:35.742Z,15.36
2023-03-05T12:08:41.399Z,15.41
2023-03-05T12:09:50.335Z,15.41
2023-03-05T12:10:52.974Z,15.53
2023-03-05T12:12:04.933Z,15.42
2023-03-05T12:13:33.656Z,15.49
2023-03-05T12:14:46.192Z,15.59
2023-03-05T12:16:04.971Z,15.71
2023-03-05T12:17:15.703Z,15.87
2023-03-05T12:18:23.144Z,15.92
2023-03-05T12:19:31.052Z,16.01
2023-03-05T12:20:41.899Z,15.98
2023-03-05T12:21:44.587Z,16.07
2023-03-05T12:22:46.596Z,16.06
2023-03-05T12:23:52.464Z,16.01
2023-03-05T12:24:54.247Z,15.98
2023-03-05T12:25:59.501Z,16.00
2023-03-05T12:27:04.006Z,16.15
2023-03-05T12:28:13.273Z,16.16
2023-03-05T12:29:33.451Z,16.19
2023-03-05T12:30:35.163Z,16.22
2023-03-05T12:31:40.410Z,16.20
2023-03-05T12:32:45.210Z,16.21
2023-03-05T12:33:46.994Z,16.12
2023-03-05T12:35:06.332Z,16.12
2023-03-05T12:36:22.963Z,16.12
2023-03-05T12:37:24.597Z,16.23
2023-03-05T12:38:33.196Z,16.28
2023-03-05T12:39:47.730Z,16.41
2023-03-05T12:40:49.435Z,16.39
2023-03-05T12:41:51.185Z,16.06
2023-03-05T12:42:55.920Z,16.24
2023-03-05T12:44:06.797Z,16.30
2023-03-05T12:45:19.351Z,16.36
2023-03-05T12:46:26.043Z,16.30
2023-03-05T12:47:27.793Z,16.38
2023-03-05T12:48:29.449Z,16.42
2023-03-05T12:49:39.156Z,16.48
2023-03-05T12:50:40.847Z,16.53
2023-03-05T12:51:42.638Z,16.63
2023-03-05T12:52:46.421Z,16.68
2023-03-05T12:53:51.649Z,16.60
2023-03-05T12:55:40.993Z,16.71
2023-03-05T12:56:46.342Z,16.71
2023-03-05T12:57:53.451Z,16.69
2023-03-05T12:58:58.790Z,16.58
2023-03-05T13:00:11.160Z,16.61
2023-03-05T13:01:31.471Z,16.59
2023-03-05T13:02:41.130Z,16.65
2023-03-05T13:03:53.015Z,16.76
2023-03-05T13:05:00.673Z,16.82
2023-03-05T13:06:05.700Z,16.81
2023-03-05T13:07:15.467Z,16.65
2023-03-05T13:08:24.156Z,16.67
2023-03-05T13:09:29.798Z,16.66
2023-03-05T13:10:31.568Z,16.67
2023-03-05T13:11:37.723Z,16.74
2023-03-05T13:12:39.972Z,16.65
2023-03-05T13:13:47.310Z,16.52
2023-03-05T13:14:58.032Z,16.09
2023-03-05T13:16:01.420Z,15.95
2023-03-05T13:17:24.547Z,15.97
2023-03-05T13:18:29.537Z,16.08
2023-03-05T13:19:33.093Z,15.99
2023-03-05T13:20:38.541Z,16.00
2023-03-05T13:21:40.256Z,15.99
2023-03-05T13:22:44.839Z,15.93
2023-03-05T13:24:00.873Z,15.89
2023-03-05T13:25:12.657Z,15.87
2023-03-05T13:26:19.233Z,15.80
2023-03-05T13:27:29.885Z,15.76
2023-03-05T13:28:33.070Z,15.68
2023-03-05T13:29:34.782Z,15.54
2023-03-05T13:30:36.591Z,15.47
2023-03-05T13:31:44.151Z,15.35
2023-03-05T13:32:51.696Z,15.24
2023-03-05T13:33:59.647Z,15.28
2023-03-05T13:35:01.613Z,15.33
2023-03-05T13:36:04.653Z,15.40
2023-03-05T13:37:19.668Z,15.41
2023-03-05T13:38:25.275Z,15.35
2023-03-05T13:39:34.446Z,15.29
2023-03-05T13:40:36.210Z,15.28
2023-03-05T13:41:37.954Z,15.21
2023-03-05T13:42:40.188Z,15.12
2023-03-05T13:43:46.374Z,15.17
2023-03-05T13:44:59.080Z,15.15
2023-03-05T13:46:00.944Z,15.13
2023-03-05T13:47:20.564Z,15.12
2023-03-05T13:48:22.537Z,14.95
2023-03-05T13:49:26.964Z,15.17
2023-03-05T13:50:29.877Z,15.16
2023-03-05T13:51:47.423Z,15.11
2023-03-05T13:52:50.015Z,15.09
2023-03-05T13:53:52.698Z,15.07
2023-03-05T13:54:54.496Z,15.03
2023-03-05T13:56:02.289Z,15.07
2023-03-05T13:57:08.476Z,15.03
2023-03-05T13:58:52.658Z,15.07
2023-03-05T13:59:54.495Z,15.09
2023-03-05T14:01:12.463Z,15.14
2023-03-05T14:02:24.038Z,15.04
2023-03-05T14:03:28.229Z,15.10
2023-03-05T14:04:34.991Z,15.14
2023-03-05T14:05:37.626Z,15.07
2023-03-05T14:07:01.576Z,14.98
2023-03-05T14:08:04.178Z,15.01
2023-03-05T14:09:20.575Z,15.03
2023-03-05T14:10:38.155Z,15.05
2023-03-05T14:11:39.922Z,15.12